createdAt,value
2019-05-18T00:00:16.459Z,12.90
2019-05-18T00:02:50.065Z,12.89
2019-05-18T00:05:29.470Z,12.89
2019-05-18T00:08:03.606Z,12.89
2019-05-18T00:10:36.363Z,12.86
2019-05-18T00:13:05.771Z,12.88
2019-05-18T00:15:37.678Z,12.88
2019-05-18T00:18:14.654Z,12.87
2019-05-18T00:20:48.259Z,12.89
2019-05-18T00:23:19.661Z,12.91
2019-05-18T00:25:49.070Z,12.93
2019-05-18T00:28:21.188Z,12.89
2019-05-18T00:30:54.742Z,12.88
2019-05-18T00:33:25.279Z,12.83
2019-05-18T00:36:00.548Z,12.78
2019-05-18T00:38:30.013Z,12.74
2019-05-18T00:41:00.382Z,12.70
2019-05-18T00:43:29.718Z,12.67
2019-05-18T00:45:58.865Z,12.65
2019-05-18T00:48:29.759Z,12.63
2019-05-18T00:50:59.089Z,12.60
2019-05-18T00:53:28.333Z,12.59
2019-05-18T00:55:57.844Z,12.60
2019-05-18T00:58:28.985Z,12.59
2019-05-18T01:00:58.924Z,12.59
2019-05-18T01:03:27.987Z,12.58
2019-05-18T01:06:02.457Z,12.58
2019-05-18T01:08:38.340Z,12.58
2019-05-18T01:11:05.704Z,12.57
2019-05-18T01:13:36.285Z,12.56
2019-05-18T01:16:06.443Z,12.56
2019-05-18T01:18:40.582Z,12.56
2019-05-18T01:21:18.896Z,12.57
2019-05-18T01:24:04.196Z,12.56
2019-05-18T01:26:34.982Z,12.56
2019-05-18T01:29:05.265Z,12.55
2019-05-18T01:31:40.713Z,12.55
2019-05-18T01:34:17.978Z,12.51
2019-05-18T01:36:50.552Z,12.51
2019-05-18T01:39:21.318Z,12.50
2019-05-18T01:41:50.455Z,12.48
2019-05-18T01:44:20.877Z,12.48
2019-05-18T01:46:51.505Z,12.46
2019-05-18T01:49:20.661Z,12.44
2019-05-18T01:51:51.024Z,12.42
2019-05-18T01:54:31.174Z,12.41
2019-05-18T01:56:59.736Z,12.40
2019-05-18T01:59:28.967Z,12.39
2019-05-18T02:01:59.015Z,12.39
2019-05-18T02:04:32.412Z,12.38
2019-05-18T02:07:07.517Z,12.36
2019-05-18T02:09:37.239Z,12.37
2019-05-18T02:12:11.676Z,12.34
2019-05-18T02:14:46.193Z,12.34
2019-05-18T02:20:25.722Z,12.33
2019-05-18T02:23:01.683Z,12.33
2019-05-18T02:25:28.891Z,12.33
2019-05-18T02:28:01.947Z,12.33
2019-05-18T02:30:39.843Z,12.32
2019-05-18T02:33:13.350Z,12.32
2019-05-18T02:35:49.557Z,12.29
2019-05-18T02:38:25.866Z,12.27
2019-05-18T02:40:56.287Z,12.26
2019-05-18T02:43:25.455Z,12.23
2019-05-18T02:49:00.042Z,12.19
2019-05-18T02:51:33.175Z,12.15
2019-05-18T02:54:16.978Z,12.14
2019-05-18T02:56:45.736Z,12.11
2019-05-18T02:59:18.568Z,12.10
2019-05-18T03:01:49.737Z,12.07
2019-05-18T03:04:34.207Z,12.05
2019-05-18T03:07:01.077Z,12.01
2019-05-18T03:09:34.061Z,11.98
2019-05-18T03:12:03.324Z,11.94
2019-05-18T03:14:37.407Z,11.89
2019-05-18T03:17:08.637Z,11.88
2019-05-18T03:19:46.333Z,11.85
2019-05-18T03:22:22.102Z,11.81
2019-05-18T03:24:52.781Z,11.80
2019-05-18T03:27:23.910Z,11.77
2019-05-18T03:29:55.100Z,11.74
2019-05-18T03:35:19.738Z,11.69
2019-05-18T03:38:11.562Z,11.65
2019-05-18T03:40:53.550Z,11.59
2019-05-18T03:43:28.226Z,11.53
2019-05-18T03:45:57.699Z,11.47
2019-05-18T03:48:36.682Z,11.44
2019-05-18T03:51:12.249Z,11.41
2019-05-18T03:53:49.305Z,11.40
2019-05-18T03:56:31.163Z,11.37
2019-05-18T03:59:18.688Z,11.36
2019-05-18T04:01:50.479Z,11.34
2019-05-18T04:04:23.031Z,11.34
2019-05-18T04:06:55.174Z,11.33
2019-05-18T04:09:32.297Z,11.30
2019-05-18T04:12:11.923Z,11.27
2019-05-18T04:14:45.745Z,11.24
2019-05-18T04:17:54.623Z,11.19
2019-05-18T04:20:02.918Z,11.17
2019-05-18T04:22:40.658Z,11.17
2019-05-18T04:25:18.829Z,11.18
2019-05-18T04:28:18.209Z,11.19
2019-05-18T04:33:57.509Z,11.24
2019-05-18T04:36:44.064Z,11.24
2019-05-18T04:39:26.162Z,11.24
2019-05-18T04:42:04.639Z,11.20
2019-05-18T04:44:38.985Z,11.18
2019-05-18T04:47:12.707Z,11.17
2019-05-18T04:49:41.969Z,11.16
2019-05-18T04:52:13.149Z,11.16
2019-05-18T04:54:51.031Z,11.16
2019-05-18T04:57:26.487Z,11.18
2019-05-18T04:59:59.276Z,11.22
2019-05-18T05:02:28.643Z,11.26
2019-05-18T05:05:01.623Z,11.31
2019-05-18T05:07:36.420Z,11.35
2019-05-18T05:10:09.206Z,11.40
2019-05-18T05:12:38.447Z,11.44
2019-05-18T05:15:11.469Z,11.48
2019-05-18T05:17:41.019Z,11.52
2019-05-18T05:20:19.452Z,11.57
2019-05-18T05:22:41.315Z,11.60
2019-05-18T05:25:16.288Z,11.64
2019-05-18T05:27:45.627Z,11.66
2019-05-18T05:30:16.806Z,11.70
2019-05-18T05:32:49.187Z,11.77
2019-05-18T05:35:21.092Z,11.83
2019-05-18T05:38:23.317Z,11.90
2019-05-18T05:40:35.693Z,11.97
2019-05-18T05:43:08.141Z,12.05
2019-05-18T05:45:37.808Z,12.14
2019-05-18T05:48:07.398Z,12.20
2019-05-18T05:50:38.331Z,12.27
2019-05-18T05:53:20.528Z,12.34
2019-05-18T05:56:09.432Z,12.41
2019-05-18T05:58:40.450Z,12.49
2019-05-18T06:01:17.237Z,12.56
2019-05-18T06:03:46.796Z,12.63
2019-05-18T06:06:15.994Z,12.72
2019-05-18T06:08:45.344Z,12.78
2019-05-18T06:11:21.243Z,12.83
2019-05-18T06:13:57.281Z,12.90
2019-05-18T06:16:30.465Z,12.96
2019-05-18T06:19:02.203Z,13.03
2019-05-18T06:21:31.431Z,13.12
2019-05-18T06:24:04.716Z,13.22
2019-05-18T06:26:45.697Z,13.32
2019-05-18T06:29:15.833Z,13.40
2019-05-18T06:31:48.174Z,13.50
2019-05-18T06:34:25.121Z,13.59
2019-05-18T06:36:55.971Z,13.65
2019-05-18T06:39:27.428Z,13.71
2019-05-18T06:41:57.064Z,13.81
2019-05-18T06:44:34.130Z,13.88
2019-05-18T06:47:03.574Z,13.94
2019-05-18T06:49:33.543Z,13.99
2019-05-18T06:52:04.300Z,14.04
2019-05-18T06:54:34.088Z,14.09
2019-05-18T06:57:05.441Z,14.14
2019-05-18T06:59:41.796Z,14.21
2019-05-18T07:02:23.961Z,14.29
2019-05-18T07:04:53.325Z,14.35
2019-05-18T07:07:33.856Z,14.40
2019-05-18T07:10:05.202Z,14.49
2019-05-18T07:12:34.436Z,14.57
2019-05-18T07:15:05.493Z,14.68
2019-05-18T07:17:45.258Z,14.76
2019-05-18T07:20:15.516Z,14.88
2019-05-18T07:22:45.853Z,15.01
2019-05-18T07:25:19.602Z,15.15
2019-05-18T07:27:48.930Z,15.35
2019-05-18T07:30:18.395Z,15.54
2019-05-18T07:33:01.570Z,15.81
2019-05-18T07:38:51.246Z,16.59
2019-05-18T07:41:13.913Z,16.91
2019-05-18T07:43:43.089Z,17.03
2019-05-18T07:49:22.047Z,17.37
2019-05-18T07:51:52.046Z,17.62
2019-05-18T07:54:49.393Z,17.84
2019-05-18T07:57:24.390Z,18.19
2019-05-18T08:02:52.001Z,18.76
2019-05-18T08:05:21.234Z,19.02
2019-05-18T08:07:50.505Z,19.31
2019-05-18T08:10:26.029Z,19.48
2019-05-18T08:12:55.243Z,19.46
2019-05-18T08:15:31.919Z,19.62
2019-05-18T08:18:06.557Z,19.90
2019-05-18T08:20:35.780Z,19.76
2019-05-18T08:26:43.387Z,19.92
2019-05-18T08:29:13.518Z,20.54
2019-05-18T08:31:42.691Z,20.77
2019-05-18T08:34:11.869Z,20.83
2019-05-18T08:36:41.116Z,20.87
2019-05-18T08:39:12.325Z,21.05
2019-05-18T08:41:41.471Z,21.22
2019-05-18T08:44:10.738Z,21.37
2019-05-18T08:46:39.915Z,21.44
2019-05-18T08:49:30.628Z,21.49
2019-05-18T08:52:07.893Z,21.61
2019-05-18T08:54:30.775Z,21.72
2019-05-18T08:57:02.009Z,21.78
2019-05-18T08:59:34.463Z,21.93
2019-05-18T09:02:05.128Z,22.07
2019-05-18T09:04:34.461Z,22.24
2019-05-18T09:07:03.634Z,22.09
2019-05-18T09:09:32.855Z,21.91
2019-05-18T09:12:05.684Z,21.95
2019-05-18T09:14:36.809Z,21.85
2019-05-18T09:17:06.947Z,21.91
2019-05-18T09:19:36.416Z,21.88
2019-05-18T09:22:22.528Z,21.51
2019-05-18T09:24:40.424Z,21.40
2019-05-18T09:27:12.328Z,21.43
2019-05-18T09:29:42.174Z,21.43
2019-05-18T09:32:11.360Z,21.91
2019-05-18T09:34:40.628Z,22.28
2019-05-18T09:37:09.819Z,22.40
2019-05-18T09:39:39.778Z,22.26
2019-05-18T09:42:15.891Z,22.01
2019-05-18T09:44:45.132Z,21.87
2019-05-18T09:47:15.570Z,21.85
2019-05-18T09:49:44.767Z,21.83
2019-05-18T09:52:16.076Z,21.97
2019-05-18T09:54:48.716Z,22.06
2019-05-18T09:57:18.594Z,21.95
2019-05-18T09:59:47.706Z,22.07
2019-05-18T10:02:17.525Z,22.17
2019-05-18T10:04:46.910Z,22.40
2019-05-18T10:07:18.743Z,22.63
2019-05-18T10:09:48.086Z,22.80
2019-05-18T10:12:17.332Z,22.87
2019-05-18T10:14:48.636Z,23.07
2019-05-18T10:17:20.060Z,23.04
2019-05-18T10:19:50.201Z,22.97
2019-05-18T10:22:21.116Z,23.09
2019-05-18T10:24:53.942Z,23.27
2019-05-18T10:27:24.323Z,23.35
2019-05-18T10:29:59.464Z,23.55
2019-05-18T10:32:36.549Z,23.67
2019-05-18T10:35:16.076Z,23.70
2019-05-18T10:37:45.382Z,23.55
2019-05-18T10:40:14.803Z,23.58
2019-05-18T10:42:44.019Z,23.58
2019-05-18T10:45:13.695Z,23.61
2019-05-18T10:47:43.066Z,23.44
2019-05-18T10:50:11.835Z,23.34
2019-05-18T10:52:41.203Z,23.39
2019-05-18T10:55:09.817Z,23.35
2019-05-18T10:57:39.117Z,23.29
2019-05-18T11:00:08.288Z,23.34
2019-05-18T11:02:37.596Z,23.41
2019-05-18T11:05:07.867Z,23.48
2019-05-18T11:07:37.141Z,23.48
2019-05-18T11:10:10.531Z,23.35
2019-05-18T11:12:39.982Z,23.22
2019-05-18T11:15:09.036Z,23.40
2019-05-18T11:17:38.266Z,23.69
2019-05-18T11:20:09.458Z,23.82
2019-05-18T11:22:40.588Z,23.49
2019-05-18T11:25:11.981Z,23.27
2019-05-18T11:27:41.247Z,22.97
2019-05-18T11:30:11.191Z,22.76
2019-05-18T11:32:42.103Z,22.59
2019-05-18T11:35:13.403Z,22.39
2019-05-18T11:37:42.634Z,22.26
2019-05-18T11:40:14.591Z,22.20
2019-05-18T11:42:43.914Z,22.23
2019-05-18T11:45:15.392Z,22.32
2019-05-18T11:47:44.610Z,22.36
2019-05-18T11:50:14.427Z,22.59
2019-05-18T11:52:45.671Z,22.73
2019-05-18T11:55:15.154Z,22.70
2019-05-18T11:57:43.883Z,22.87
2019-05-18T12:00:16.259Z,22.95
2019-05-18T12:02:45.849Z,23.19
2019-05-18T12:05:15.318Z,23.35
2019-05-18T12:07:43.998Z,23.49
2019-05-18T12:10:13.559Z,23.62
2019-05-18T12:12:44.115Z,23.47
2019-05-18T12:15:13.996Z,23.35
2019-05-18T12:17:43.528Z,23.50
2019-05-18T12:20:13.343Z,23.51
2019-05-18T12:22:42.954Z,23.57
2019-05-18T12:25:12.517Z,23.54
2019-05-18T12:27:41.974Z,23.44
2019-05-18T12:30:12.530Z,23.31
2019-05-18T12:32:41.807Z,23.50
2019-05-18T12:35:11.262Z,23.64
2019-05-18T12:37:40.565Z,23.66
2019-05-18T12:40:10.922Z,23.71
2019-05-18T12:42:40.434Z,23.83
2019-05-18T12:45:10.348Z,23.92
2019-05-18T12:47:39.787Z,23.86
2019-05-18T12:50:10.688Z,23.98
2019-05-18T12:52:40.101Z,24.04
2019-05-18T12:55:09.830Z,24.13
2019-05-18T12:57:39.191Z,24.10
2019-05-18T13:00:13.399Z,24.06
2019-05-18T13:02:45.305Z,24.13
2019-05-18T13:05:15.317Z,24.23
2019-05-18T13:07:44.795Z,24.11
2019-05-18T13:10:14.897Z,24.27
2019-05-18T13:12:44.065Z,24.16
2019-05-18T13:15:18.549Z,24.03
2019-05-18T13:17:48.966Z,24.02
2019-05-18T13:20:20.674Z,23.94
2019-05-18T13:22:50.078Z,23.83
2019-05-18T13:25:22.288Z,23.92
2019-05-18T13:27:51.854Z,24.05
2019-05-18T13:30:21.844Z,24.20
2019-05-18T13:32:51.034Z,24.22
2019-05-18T13:35:22.168Z,24.30
2019-05-18T13:37:52.502Z,24.52
2019-05-18T13:40:22.598Z,24.70
2019-05-18T13:42:52.271Z,24.87
2019-05-18T13:45:23.004Z,25.04
2019-05-18T13:47:52.716Z,24.99
2019-05-18T13:50:23.697Z,24.85
2019-05-18T13:52:55.104Z,24.79
2019-05-18T13:55:25.866Z,24.80
2019-05-18T13:57:55.393Z,24.83
2019-05-18T14:00:24.965Z,24.93
2019-05-18T14:02:58.840Z,24.92
2019-05-18T14:05:28.200Z,24.84
2019-05-18T14:07:57.422Z,24.67
2019-05-18T14:10:26.621Z,24.77
2019-05-18T14:12:55.990Z,24.57
2019-05-18T14:15:24.671Z,24.73
2019-05-18T14:17:54.019Z,24.80
2019-05-18T14:20:22.506Z,25.02
2019-05-18T14:22:52.086Z,25.16
2019-05-18T14:25:22.311Z,25.31
2019-05-18T14:27:51.603Z,25.42
2019-05-18T14:30:24.694Z,25.57
2019-05-18T14:32:53.938Z,25.64
2019-05-18T14:35:24.848Z,25.71
2019-05-18T14:37:54.257Z,25.78
2019-05-18T14:40:29.113Z,25.71
2019-05-18T14:42:58.333Z,25.67
2019-05-18T14:45:27.538Z,25.55
2019-05-18T14:47:57.922Z,25.54
2019-05-18T14:50:34.347Z,25.70
2019-05-18T14:53:11.202Z,25.93
2019-05-18T14:55:41.813Z,26.14
2019-05-18T14:58:19.043Z,26.32
2019-05-18T15:00:48.909Z,26.48
2019-05-18T15:03:24.372Z,26.54
2019-05-18T15:05:51.959Z,26.53
2019-05-18T15:08:21.259Z,26.37
2019-05-18T15:10:54.676Z,26.21
2019-05-18T15:13:26.964Z,26.40
2019-05-18T15:15:57.030Z,26.72
2019-05-18T15:18:26.460Z,26.86
2019-05-18T15:20:55.707Z,26.89
2019-05-18T15:23:24.958Z,26.90
2019-05-18T15:25:54.348Z,27.02
2019-05-18T15:28:47.406Z,26.88
2019-05-18T15:31:38.544Z,26.60
2019-05-18T15:34:08.668Z,26.27
2019-05-18T15:36:37.860Z,25.97
2019-05-18T15:39:06.816Z,25.67
2019-05-18T15:41:36.099Z,25.44
2019-05-18T15:44:04.579Z,25.25
2019-05-18T15:46:34.209Z,25.07
2019-05-18T15:49:04.092Z,24.86
2019-05-18T15:51:33.795Z,24.70
2019-05-18T15:54:04.090Z,24.61
2019-05-18T15:56:33.298Z,24.51
2019-05-18T15:59:05.611Z,24.42
2019-05-18T16:01:35.022Z,24.31
2019-05-18T16:04:06.471Z,24.24
2019-05-18T16:06:34.701Z,24.16
2019-05-18T16:09:06.325Z,24.13
2019-05-18T16:11:37.084Z,24.08
2019-05-18T16:14:06.388Z,24.07
2019-05-18T16:16:35.571Z,24.11
2019-05-18T16:19:05.404Z,24.06
2019-05-18T16:21:34.685Z,23.95
2019-05-18T16:24:04.226Z,23.86
2019-05-18T16:26:33.581Z,23.82
2019-05-18T16:29:04.748Z,23.80
2019-05-18T16:31:33.218Z,23.81
2019-05-18T16:34:03.868Z,23.80
2019-05-18T16:36:33.073Z,23.83
2019-05-18T16:39:02.452Z,23.84
2019-05-18T16:41:31.321Z,23.86
2019-05-18T16:44:00.561Z,23.85
2019-05-18T16:46:39.970Z,23.87
2019-05-18T16:49:27.669Z,23.85
2019-05-18T16:52:16.317Z,23.83
2019-05-18T16:55:02.067Z,23.82
2019-05-18T16:57:31.371Z,23.83
2019-05-18T17:00:01.061Z,23.85
2019-05-18T17:02:32.188Z,23.83
2019-05-18T17:05:01.618Z,23.83
2019-05-18T17:07:31.175Z,23.81
2019-05-18T17:10:03.797Z,23.78
2019-05-18T17:12:33.548Z,23.79
2019-05-18T17:15:06.119Z,23.80
2019-05-18T17:17:37.901Z,23.80
2019-05-18T17:20:10.365Z,23.83
2019-05-18T17:22:39.627Z,23.85
2019-05-18T17:25:10.095Z,23.82
2019-05-18T17:27:39.456Z,23.71
2019-05-18T17:30:09.871Z,23.65
2019-05-18T17:32:39.088Z,23.62
2019-05-18T17:35:10.174Z,23.63
2019-05-18T17:37:39.418Z,23.62
2019-05-18T17:40:10.192Z,23.55
2019-05-18T17:42:39.576Z,23.51
2019-05-18T17:45:09.998Z,23.54
2019-05-18T17:47:39.307Z,23.57
2019-05-18T17:50:10.289Z,23.60
2019-05-18T17:52:43.855Z,23.57
2019-05-18T17:55:16.352Z,23.56
2019-05-18T17:57:44.772Z,23.56
2019-05-18T18:00:14.354Z,23.58
2019-05-18T18:02:48.339Z,23.54
2019-05-18T18:05:20.706Z,23.50
2019-05-18T18:07:49.945Z,23.44
2019-05-18T18:10:19.337Z,23.39
2019-05-18T18:12:48.967Z,23.35
2019-05-18T18:15:23.891Z,23.27
2019-05-18T18:18:04.504Z,23.21
2019-05-18T18:20:33.828Z,23.13
2019-05-18T18:23:06.476Z,23.05
2019-05-18T18:25:46.698Z,22.96
2019-05-18T18:28:17.746Z,22.88
2019-05-18T18:30:47.437Z,22.81
2019-05-18T18:33:38.594Z,22.75
2019-05-18T18:36:06.881Z,22.69
2019-05-18T18:38:37.769Z,22.61
2019-05-18T18:41:11.746Z,22.49
2019-05-18T18:43:41.091Z,22.39
2019-05-18T18:46:10.389Z,22.28
2019-05-18T18:48:39.825Z,22.17
2019-05-18T18:51:08.354Z,22.09
2019-05-18T18:53:41.463Z,21.97
2019-05-18T18:56:12.289Z,21.87
2019-05-18T18:58:42.955Z,21.77
2019-05-18T19:01:12.131Z,21.68
2019-05-18T19:03:46.008Z,21.55
2019-05-18T19:06:15.651Z,21.47
2019-05-18T19:08:44.115Z,21.39
2019-05-18T19:11:13.297Z,21.28
2019-05-18T19:13:45.648Z,21.22
2019-05-18T19:16:13.737Z,21.11
2019-05-18T19:18:42.908Z,21.02
2019-05-18T19:21:12.075Z,20.92
2019-05-18T19:23:41.391Z,20.84
2019-05-18T19:26:10.562Z,20.77
2019-05-18T19:28:39.745Z,20.67
2019-05-18T19:31:08.915Z,20.58
2019-05-18T19:33:38.343Z,20.51
2019-05-18T19:36:06.796Z,20.42
2019-05-18T19:38:35.902Z,20.36
2019-05-18T19:41:05.087Z,20.30
2019-05-18T19:43:34.287Z,20.21
2019-05-18T19:46:03.779Z,20.13
2019-05-18T19:48:32.487Z,20.05
2019-05-18T19:51:01.632Z,19.97
2019-05-18T19:53:30.803Z,19.92
2019-05-18T19:56:00.046Z,19.84
2019-05-18T19:58:29.208Z,19.78
2019-05-18T20:00:59.820Z,19.70
2019-05-18T20:03:31.023Z,19.62
2019-05-18T20:06:01.670Z,19.56
2019-05-18T20:08:31.199Z,19.49
2019-05-18T20:11:02.461Z,19.41
2019-05-18T20:13:38.472Z,19.33
2019-05-18T20:16:12.027Z,19.27
2019-05-18T20:18:41.292Z,19.22
2019-05-18T20:21:17.329Z,19.16
2019-05-18T20:23:52.106Z,19.12
2019-05-18T20:26:28.752Z,19.05
2019-05-18T20:28:58.677Z,18.98
2019-05-18T20:31:31.498Z,18.92
2019-05-18T20:34:04.292Z,18.86
2019-05-18T20:36:39.059Z,18.78
2019-05-18T20:39:12.603Z,18.71
2019-05-18T20:41:41.728Z,18.65
2019-05-18T20:44:14.192Z,18.57
2019-05-18T20:46:48.455Z,18.50
2019-05-18T20:49:21.375Z,18.42
2019-05-18T20:51:50.695Z,18.37
2019-05-18T20:54:24.105Z,18.27
2019-05-18T20:57:00.895Z,18.19
2019-05-18T20:59:30.254Z,18.11
2019-05-18T21:01:59.457Z,18.04
2019-05-18T21:04:28.624Z,17.96
2019-05-18T21:06:57.876Z,17.86
2019-05-18T21:09:27.067Z,17.78
2019-05-18T21:12:00.979Z,17.71
2019-05-18T21:14:30.129Z,17.65
2019-05-18T21:16:59.351Z,17.59
2019-05-18T21:19:28.704Z,17.53
2019-05-18T21:21:57.906Z,17.48
2019-05-18T21:24:27.074Z,17.46
2019-05-18T21:26:56.491Z,17.40
2019-05-18T21:29:25.698Z,17.35
2019-05-18T21:31:56.385Z,17.29
2019-05-18T21:34:25.588Z,17.23
2019-05-18T21:36:54.748Z,17.18
2019-05-18T21:39:23.935Z,17.14
2019-05-18T21:41:55.754Z,17.09
2019-05-18T21:44:31.335Z,17.02
2019-05-18T21:47:00.447Z,16.97
2019-05-18T21:49:33.550Z,16.92
2019-05-18T21:52:06.459Z,16.89
2019-05-18T21:54:37.157Z,16.86
2019-05-18T21:57:06.343Z,16.81
2019-05-18T21:59:35.556Z,16.76
2019-05-18T22:02:05.364Z,16.72
2019-05-18T22:11:45.565Z,16.54
2019-05-18T22:28:36.773Z,16.15
2019-05-18T22:31:55.584Z,16.06
2019-05-18T22:34:26.880Z,15.96
2019-05-18T22:50:20.282Z,15.87
2019-05-18T22:53:29.673Z,15.82
2019-05-18T22:56:40.496Z,15.80
2019-05-18T22:59:25.667Z,15.76
2019-05-18T23:18:56.448Z,15.49
2019-05-18T23:25:08.233Z,15.31
2019-05-18T23:54:57.378Z,14.90
